Time;durP1;ratioP1;P1;durP2;ratioP2;P2;SDS_P1;SDS_P2;PMS_P1;PMS_P2;Temp;Humidity;BMP_temperature;BMP_pressure;BME280_temperature;BME280_humidity;BME280_pressure;Samples;Min_cycle;Max_cycle;Signal;HPM_P1;HPM_P2
2022/08/15 00:00:12;;;;;;;8.68;7.05;;;;;;;;;;1718505;82;21119;-65
2022/08/15 00:02:43;;;;;;;8.08;7.28;;;;;;;;;;1727848;82;20962;-65
2022/08/15 00:05:11;;;;;;;8.90;7.65;;;;;;;;;;1715750;82;20998;-65
2022/08/15 00:07:38;;;;;;;9.33;7.40;;;;;;;;;;1727347;82;22255;-66
2022/08/15 00:10:06;;;;;;;8.48;6.70;;;;;;;;;;1727789;82;20993;-65
2022/08/15 00:12:34;;;;;;;8.78;6.97;;;;;;;;;;1730723;82;21044;-65
2022/08/15 00:15:02;;;;;;;7.87;6.92;;;;;;;;;;1743048;82;21587;-65
2022/08/15 00:17:29;;;;;;;8.35;7.53;;;;;;;;;;1744174;81;21036;-65
2022/08/15 00:19:55;;;;;;;8.45;6.87;;;;;;;;;;1747732;82;21009;-66
2022/08/15 00:22:20;;;;;;;7.67;6.67;;;;;;;;;;1732277;82;21084;-65
2022/08/15 00:24:47;;;;;;;8.25;6.62;;;;;;;;;;1752813;82;21473;-65
2022/08/15 00:27:13;;;;;;;10.38;7.42;;;;;;;;;;1745620;82;21026;-65
2022/08/15 00:29:41;;;;;;;10.00;6.75;;;;;;;;;;1742024;82;21055;-65
2022/08/15 00:32:12;;;;;;;7.95;7.10;;;;;;;;;;1730677;82;21547;-65
2022/08/15 00:34:39;;;;;;;9.23;7.75;;;;;;;;;;1735047;82;21021;-64
2022/08/15 00:37:05;;;;;;;7.87;6.72;;;;;;;;;;1740753;82;21513;-65
2022/08/15 00:39:32;;;;;;;10.68;7.05;;;;;;;;;;1737966;82;20985;-65
2022/08/15 00:42:00;;;;;;;11.45;7.30;;;;;;;;;;1736548;82;21034;-65
2022/08/15 00:44:32;;;;;;;8.75;6.60;;;;;;;;;;1745744;82;21493;-65
2022/08/15 00:47:00;;;;;;;9.65;6.65;;;;;;;;;;1740889;82;21035;-66
2022/08/15 00:49:28;;;;;;;8.60;7.50;;;;;;;;;;1745750;82;21076;-65
2022/08/15 00:51:55;;;;;;;8.33;6.47;;;;;;;;;;1739676;82;21064;-65
2022/08/15 00:54:24;;;;;;;8.85;7.05;;;;;;;;;;1734602;80;21095;-65
2022/08/15 00:56:52;;;;;;;9.80;7.25;;;;;;;;;;1738421;82;21075;-65
2022/08/15 00:59:20;;;;;;;9.20;7.47;;;;;;;;;;1737833;82;21525;-64
2022/08/15 01:07:51;;;;;;;10.55;6.87;;;;;;;;;;1728100;83;21834;-68
2022/08/15 01:10:18;;;;;;;8.90;7.45;;;;;;;;;;1775050;81;21021;-68
2022/08/15 01:12:44;;;;;;;9.28;7.80;;;;;;;;;;1728252;83;21025;-68
2022/08/15 01:15:11;;;;;;;7.05;5.87;;;;;;;;;;1728259;83;21314;-68
2022/08/15 01:17:37;;;;;;;10.88;6.55;;;;;;;;;;1775540;81;21056;-67
2022/08/15 01:20:07;;;;;;;10.43;6.22;;;;;;;;;;1728447;83;21056;-68
2022/08/15 01:22:48;;;;;;;8.88;7.12;;;;;;;;;;1774858;81;21052;-68
2022/08/15 01:25:18;;;;;;;9.23;6.58;;;;;;;;;;1728318;82;21532;-68
2022/08/15 01:27:52;;;;;;;10.20;6.97;;;;;;;;;;1775263;81;21192;-68
2022/08/15 01:30:20;;;;;;;9.50;6.65;;;;;;;;;;1728263;82;21567;-68
2022/08/15 01:32:46;;;;;;;9.38;6.97;;;;;;;;;;1775199;81;21099;-68
2022/08/15 01:35:13;;;;;;;8.18;7.33;;;;;;;;;;1775386;81;21029;-68
2022/08/15 01:37:40;;;;;;;7.92;7.05;;;;;;;;;;1728435;83;21140;-68
2022/08/15 01:40:08;;;;;;;7.85;6.75;;;;;;;;;;1728451;82;21025;-68
2022/08/15 01:42:37;;;;;;;8.70;6.50;;;;;;;;;;1774698;81;21049;-68
2022/08/15 01:45:06;;;;;;;10.10;6.80;;;;;;;;;;1775312;81;20974;-68
2022/08/15 01:47:38;;;;;;;8.83;6.85;;;;;;;;;;1728662;83;21048;-68
2022/08/15 01:50:07;;;;;;;7.97;7.17;;;;;;;;;;1775325;81;21045;-68
2022/08/15 01:52:35;;;;;;;7.33;6.35;;;;;;;;;;1728302;82;21045;-68
2022/08/15 01:55:02;;;;;;;8.63;6.37;;;;;;;;;;1775235;81;21025;-68
2022/08/15 01:57:29;;;;;;;7.85;6.17;;;;;;;;;;1728484;83;21061;-68
2022/08/15 01:59:56;;;;;;;7.78;6.72;;;;;;;;;;1728487;82;21064;-67
2022/08/15 02:02:22;;;;;;;8.25;7.33;;;;;;;;;;1775223;81;21021;-67
2022/08/15 02:04:49;;;;;;;10.95;8.05;;;;;;;;;;1743981;81;21048;-67
2022/08/15 02:07:17;;;;;;;8.23;6.10;;;;;;;;;;1739510;81;21022;-67
2022/08/15 02:09:45;;;;;;;7.70;6.33;;;;;;;;;;1713514;82;20994;-67
2022/08/15 02:12:14;;;;;;;10.98;6.67;;;;;;;;;;1740058;81;21033;-68
2022/08/15 02:14:41;;;;;;;8.90;7.33;;;;;;;;;;1739235;82;20990;-68
2022/08/15 02:17:13;;;;;;;10.82;6.70;;;;;;;;;;1738423;82;21049;-68
2022/08/15 02:19:40;;;;;;;8.95;6.60;;;;;;;;;;1734011;82;21034;-67
2022/08/15 02:22:08;;;;;;;12.07;6.35;;;;;;;;;;1736233;81;21043;-67
2022/08/15 02:24:34;;;;;;;8.43;7.40;;;;;;;;;;1738239;81;21844;-67
2022/08/15 02:27:00;;;;;;;10.75;7.15;;;;;;;;;;1743600;81;20978;-67
2022/08/15 02:29:26;;;;;;;7.33;5.97;;;;;;;;;;1737463;81;21057;-67
2022/08/15 02:31:54;;;;;;;9.30;6.67;;;;;;;;;;1704055;82;22239;-67
2022/08/15 02:34:20;;;;;;;7.05;6.35;;;;;;;;;;1743236;81;21294;-67
2022/08/15 02:36:48;;;;;;;7.70;6.58;;;;;;;;;;1735226;81;21089;-67
2022/08/15 02:39:14;;;;;;;8.30;6.35;;;;;;;;;;1733963;81;20987;-67
2022/08/15 02:41:41;;;;;;;8.83;7.33;;;;;;;;;;1741059;81;21556;-67
2022/08/15 02:44:07;;;;;;;8.15;7.08;;;;;;;;;;1739228;82;21020;-67
2022/08/15 02:46:36;;;;;;;7.28;6.55;;;;;;;;;;1732796;82;20970;-67
2022/08/15 02:49:03;;;;;;;8.08;6.22;;;;;;;;;;1703392;82;21347;-67
2022/08/15 02:51:31;;;;;;;8.78;7.33;;;;;;;;;;1737621;81;21540;-67
2022/08/15 02:53:57;;;;;;;8.75;6.45;;;;;;;;;;1737210;81;21014;-67
2022/08/15 02:56:24;;;;;;;7.78;6.50;;;;;;;;;;1736793;81;21006;-68
2022/08/15 02:58:51;;;;;;;8.83;6.97;;;;;;;;;;1737584;81;21504;-67
2022/08/15 03:01:18;;;;;;;7.10;6.05;;;;;;;;;;1738091;81;20976;-67
2022/08/15 03:03:46;;;;;;;8.13;6.60;;;;;;;;;;1711332;82;21112;-68
2022/08/15 03:06:13;;;;;;;10.15;7.20;;;;;;;;;;1726805;82;20984;-67
2022/08/15 03:08:40;;;;;;;8.55;7.22;;;;;;;;;;1715644;82;21549;-69
2022/08/15 03:11:08;;;;;;;9.63;6.37;;;;;;;;;;1726663;82;21081;-68
2022/08/15 03:13:35;;;;;;;9.10;6.00;;;;;;;;;;1716414;82;21075;-66
2022/08/15 03:16:02;;;;;;;7.90;6.90;;;;;;;;;;1738071;82;21481;-66
2022/08/15 03:18:32;;;;;;;7.37;6.67;;;;;;;;;;1727428;82;21041;-66
2022/08/15 03:21:00;;;;;;;10.60;7.72;;;;;;;;;;1687257;83;21033;-67
2022/08/15 03:23:27;;;;;;;8.55;6.75;;;;;;;;;;1750466;81;20988;-67
2022/08/15 03:25:54;;;;;;;8.35;7.17;;;;;;;;;;1749869;81;21029;-67
2022/08/15 03:28:22;;;;;;;8.13;6.20;;;;;;;;;;1746363;81;20974;-67
2022/08/15 03:30:49;;;;;;;8.08;6.45;;;;;;;;;;1743104;81;21560;-67
2022/08/15 03:33:15;;;;;;;8.50;6.70;;;;;;;;;;1746984;81;21021;-66
2022/08/15 03:35:45;;;;;;;9.33;6.33;;;;;;;;;;1717034;83;21078;-67
2022/08/15 03:38:13;;;;;;;7.90;7.10;;;;;;;;;;1715257;82;21033;-66
2022/08/15 03:40:40;;;;;;;8.65;7.37;;;;;;;;;;1748775;81;20973;-66
2022/08/15 03:43:08;;;;;;;8.43;6.72;;;;;;;;;;1744390;82;21059;-66
2022/08/15 03:45:34;;;;;;;10.30;6.75;;;;;;;;;;1745108;81;21497;-66
2022/08/15 03:48:01;;;;;;;7.87;6.80;;;;;;;;;;1747854;81;21053;-65
2022/08/15 03:50:29;;;;;;;7.33;6.60;;;;;;;;;;1749032;81;21528;-66
2022/08/15 03:52:58;;;;;;;9.90;7.55;;;;;;;;;;1757605;81;22146;-66
2022/08/15 03:55:26;;;;;;;9.78;6.50;;;;;;;;;;1753348;81;21065;-66
2022/08/15 03:57:52;;;;;;;10.58;6.80;;;;;;;;;;1744285;81;21029;-66
2022/08/15 04:00:20;;;;;;;7.92;7.10;;;;;;;;;;1747509;81;21028;-66
2022/08/15 04:02:46;;;;;;;8.30;7.17;;;;;;;;;;1745742;81;21096;-67
2022/08/15 04:05:12;;;;;;;7.62;6.55;;;;;;;;;;1741198;81;21117;-66
2022/08/15 04:07:39;;;;;;;8.13;6.95;;;;;;;;;;1739080;81;21065;-66
2022/08/15 04:10:06;;;;;;;8.10;7.05;;;;;;;;;;1738910;82;21030;-66
2022/08/15 04:12:35;;;;;;;7.42;6.62;;;;;;;;;;1736070;81;21509;-68
2022/08/15 04:15:04;;;;;;;7.87;6.95;;;;;;;;;;1740001;82;21041;-67
2022/08/15 04:17:31;;;;;;;11.97;7.65;;;;;;;;;;1742443;81;21029;-66
2022/08/15 04:19:58;;;;;;;8.15;7.03;;;;;;;;;;1737975;81;21053;-67
2022/08/15 04:22:31;;;;;;;9.45;6.70;;;;;;;;;;1740222;81;21050;-68
2022/08/15 04:25:05;;;;;;;6.90;6.17;;;;;;;;;;1742069;81;21013;-68
2022/08/15 04:27:31;;;;;;;10.68;7.37;;;;;;;;;;1732626;82;21042;-67
2022/08/15 04:29:58;;;;;;;8.85;7.45;;;;;;;;;;1748364;81;20971;-68
2022/08/15 04:32:24;;;;;;;9.90;7.85;;;;;;;;;;1718172;82;21017;-68
2022/08/15 04:34:51;;;;;;;8.18;6.80;;;;;;;;;;1723324;82;21124;-68
2022/08/15 04:37:18;;;;;;;9.00;7.85;;;;;;;;;;1737301;81;20978;-68
2022/08/15 04:39:48;;;;;;;10.63;6.75;;;;;;;;;;1738838;82;21034;-69
2022/08/15 04:42:14;;;;;;;13.55;7.25;;;;;;;;;;1743659;81;21030;-70
2022/08/15 04:44:41;;;;;;;8.35;7.37;;;;;;;;;;1734856;82;21014;-70
2022/08/15 04:47:07;;;;;;;9.18;7.17;;;;;;;;;;1740142;81;21045;-69
2022/08/15 04:49:34;;;;;;;9.13;7.12;;;;;;;;;;1744287;81;22188;-70
2022/08/15 04:52:08;;;;;;;9.03;7.60;;;;;;;;;;1739255;81;21077;-69
2022/08/15 04:54:35;;;;;;;9.83;6.53;;;;;;;;;;1729149;81;21096;-68
2022/08/15 04:57:06;;;;;;;9.93;7.12;;;;;;;;;;1756401;81;21052;-69
2022/08/15 04:59:33;;;;;;;8.93;6.92;;;;;;;;;;1746092;81;21525;-69
2022/08/15 05:02:00;;;;;;;8.75;7.60;;;;;;;;;;1731608;82;21085;-70
2022/08/15 05:04:26;;;;;;;8.15;6.33;;;;;;;;;;1736348;81;21084;-69
2022/08/15 05:06:53;;;;;;;10.50;8.00;;;;;;;;;;1716545;81;21056;-70
2022/08/15 05:09:19;;;;;;;8.60;6.50;;;;;;;;;;1740606;81;22002;-69
2022/08/15 05:11:45;;;;;;;8.68;7.42;;;;;;;;;;1713057;81;21583;-68
2022/08/15 05:14:11;;;;;;;8.73;6.72;;;;;;;;;;1740378;81;21002;-69
2022/08/15 05:16:37;;;;;;;8.43;6.50;;;;;;;;;;1743487;82;21040;-68
2022/08/15 05:19:05;;;;;;;7.97;7.17;;;;;;;;;;1735519;81;21073;-68
2022/08/15 05:21:33;;;;;;;9.80;7.67;;;;;;;;;;1734422;82;21564;-68
2022/08/15 05:23:59;;;;;;;10.98;7.00;;;;;;;;;;1724965;81;21320;-69
2022/08/15 05:26:30;;;;;;;8.00;6.58;;;;;;;;;;1738430;81;21081;-69
2022/08/15 05:30:40;;;;;;;8.15;6.58;;;;;;;;;;1800576;78;22862;-69
2022/08/15 05:33:14;;;;;;;10.80;7.40;;;;;;;;;;1798380;78;21044;-70
2022/08/15 05:35:42;;;;;;;9.30;7.47;;;;;;;;;;1799392;78;21016;-69
2022/08/15 05:38:11;;;;;;;8.70;6.92;;;;;;;;;;1793304;78;21523;-69
2022/08/15 05:40:45;;;;;;;8.73;6.65;;;;;;;;;;1794415;78;20996;-71
2022/08/15 05:43:14;;;;;;;8.08;6.97;;;;;;;;;;1797363;78;20989;-70
2022/08/15 05:45:46;;;;;;;8.13;6.45;;;;;;;;;;1792976;78;21013;-70
2022/08/15 05:48:14;;;;;;;8.60;6.33;;;;;;;;;;1802641;78;21527;-70
2022/08/15 05:50:45;;;;;;;7.87;6.72;;;;;;;;;;1810317;78;21063;-70
2022/08/15 05:53:31;;;;;;;9.30;7.03;;;;;;;;;;1795748;78;21492;-70
2022/08/15 05:55:59;;;;;;;8.00;6.75;;;;;;;;;;1797405;79;21005;-69
2022/08/15 05:58:30;;;;;;;9.40;6.22;;;;;;;;;;1803037;78;21072;-71
2022/08/15 06:01:02;;;;;;;7.83;6.90;;;;;;;;;;1794790;78;21000;-70
2022/08/15 06:03:29;;;;;;;7.22;6.50;;;;;;;;;;1782353;80;21107;-69
2022/08/15 06:05:57;;;;;;;9.18;6.80;;;;;;;;;;1765734;80;21564;-70
2022/08/15 06:08:24;;;;;;;8.60;6.50;;;;;;;;;;1772951;80;20977;-70
2022/08/15 06:10:55;;;;;;;8.10;6.60;;;;;;;;;;1757798;80;21575;-70
2022/08/15 06:13:23;;;;;;;8.03;6.90;;;;;;;;;;1762351;80;21052;-70
2022/08/15 06:16:08;;;;;;;9.33;7.35;;;;;;;;;;1767668;80;21017;-69
2022/08/15 06:18:35;;;;;;;9.23;6.65;;;;;;;;;;1768909;80;21036;-70
2022/08/15 06:21:06;;;;;;;10.30;7.15;;;;;;;;;;1770448;80;20957;-70
2022/08/15 06:23:43;;;;;;;9.18;6.92;;;;;;;;;;1766839;78;21540;-69
2022/08/15 06:26:13;;;;;;;7.90;6.85;;;;;;;;;;1767310;78;21068;-69
2022/08/15 06:28:41;;;;;;;9.18;7.42;;;;;;;;;;1767756;80;21528;-70
2022/08/15 06:31:09;;;;;;;6.92;6.22;;;;;;;;;;1756838;79;20997;-71
2022/08/15 06:33:39;;;;;;;6.92;5.97;;;;;;;;;;1757166;81;21036;-69
2022/08/15 06:36:15;;;;;;;8.98;7.37;;;;;;;;;;1747680;81;21549;-71
2022/08/15 06:39:01;;;;;;;10.68;6.65;;;;;;;;;;1764954;81;21029;-69
2022/08/15 06:41:29;;;;;;;7.97;6.72;;;;;;;;;;1730934;81;21001;-69
2022/08/15 06:43:57;;;;;;;9.23;7.35;;;;;;;;;;1747709;79;21005;-68
2022/08/15 06:46:30;;;;;;;9.08;7.12;;;;;;;;;;1752279;81;21088;-68
2022/08/15 06:48:58;;;;;;;9.90;7.83;;;;;;;;;;1749896;81;21053;-69
2022/08/15 06:51:24;;;;;;;7.05;6.35;;;;;;;;;;1725208;80;22157;-68
2022/08/15 06:53:54;;;;;;;7.87;6.25;;;;;;;;;;1754013;81;21038;-70
2022/08/15 06:56:22;;;;;;;8.35;7.33;;;;;;;;;;1760472;81;21551;-70
2022/08/15 06:58:54;;;;;;;7.47;6.67;;;;;;;;;;1750476;81;21065;-70
2022/08/15 07:01:21;;;;;;;7.15;6.45;;;;;;;;;;1754400;81;22076;-69
2022/08/15 07:03:59;;;;;;;8.58;6.55;;;;;;;;;;1742475;79;21043;-67
2022/08/15 07:06:33;;;;;;;10.63;7.12;;;;;;;;;;1754498;80;22145;-68
2022/08/15 07:09:04;;;;;;;10.15;7.67;;;;;;;;;;1757249;79;21022;-67
2022/08/15 07:11:32;;;;;;;8.20;6.05;;;;;;;;;;1739964;81;21061;-68
2022/08/15 07:14:06;;;;;;;7.05;6.15;;;;;;;;;;1751558;81;21036;-68
2022/08/15 07:16:36;;;;;;;12.80;7.30;;;;;;;;;;1747878;81;21073;-67
2022/08/15 07:19:02;;;;;;;9.00;7.28;;;;;;;;;;1751403;81;21075;-69
2022/08/15 07:21:30;;;;;;;9.43;7.12;;;;;;;;;;1739082;81;21033;-67
2022/08/15 07:26:59;;;;;;;7.33;6.15;;;;;;;;;;1680935;84;21066;-68
2022/08/15 07:29:34;;;;;;;9.50;7.40;;;;;;;;;;1662397;84;21025;-69
2022/08/15 07:32:02;;;;;;;10.08;7.92;;;;;;;;;;1673199;84;21131;-69
2022/08/15 07:34:29;;;;;;;9.68;7.08;;;;;;;;;;1692536;83;21052;-69
2022/08/15 07:36:58;;;;;;;11.12;7.00;;;;;;;;;;1695023;85;21108;-71
2022/08/15 07:39:26;;;;;;;7.67;6.37;;;;;;;;;;1682751;84;21085;-70
2022/08/15 07:41:53;;;;;;;9.80;7.10;;;;;;;;;;1679016;84;21626;-69
2022/08/15 07:44:28;;;;;;;10.13;7.55;;;;;;;;;;1683240;84;21069;-70
2022/08/15 07:46:56;;;;;;;12.80;7.30;;;;;;;;;;1687029;83;21044;-70
2022/08/15 07:49:25;;;;;;;9.28;7.10;;;;;;;;;;1683874;84;21147;-70
2022/08/15 07:51:59;;;;;;;7.67;6.87;;;;;;;;;;1686657;83;20993;-70
2022/08/15 07:54:32;;;;;;;9.08;6.83;;;;;;;;;;1678776;84;21076;-68
2022/08/15 07:57:00;;;;;;;9.13;6.90;;;;;;;;;;1691381;84;21782;-69
2022/08/15 07:59:30;;;;;;;8.53;7.40;;;;;;;;;;1691213;84;20969;-69
2022/08/15 08:02:20;;;;;;;10.25;7.80;;;;;;;;;;1648297;86;21612;-69
2022/08/15 08:04:46;;;;;;;10.58;6.80;;;;;;;;;;1693600;84;21591;-69
2022/08/15 08:07:29;;;;;;;10.40;6.62;;;;;;;;;;1695414;83;21068;-68
2022/08/15 08:10:00;;;;;;;9.58;7.30;;;;;;;;;;1692140;83;21017;-68
2022/08/15 08:12:31;;;;;;;8.20;6.87;;;;;;;;;;1690051;84;21071;-68
2022/08/15 08:15:02;;;;;;;7.35;6.37;;;;;;;;;;1686648;83;21614;-69
2022/08/15 08:17:36;;;;;;;10.55;6.15;;;;;;;;;;1687339;84;21044;-69
2022/08/15 08:20:08;;;;;;;8.53;7.22;;;;;;;;;;1687842;83;21071;-68
2022/08/15 08:22:52;;;;;;;9.08;7.33;;;;;;;;;;1689441;84;22839;-68
2022/08/15 08:25:26;;;;;;;10.32;7.03;;;;;;;;;;1690713;83;21908;-69
2022/08/15 08:28:01;;;;;;;7.87;7.12;;;;;;;;;;1696378;83;21161;-69
2022/08/15 08:30:31;;;;;;;7.05;6.30;;;;;;;;;;1698379;83;21115;-70
2022/08/15 08:33:14;;;;;;;8.85;6.22;;;;;;;;;;1698104;83;21072;-69
2022/08/15 08:35:42;;;;;;;8.08;6.80;;;;;;;;;;1661386;85;21068;-70
2022/08/15 08:38:10;;;;;;;7.42;5.90;;;;;;;;;;1689753;83;21048;-69
2022/08/15 08:43:27;;;;;;;9.63;8.23;;;;;;;;;;1690364;84;21049;-66
2022/08/15 08:46:13;;;;;;;8.08;6.42;;;;;;;;;;1690856;84;21032;-67
2022/08/15 08:48:51;;;;;;;54.08;41.90;;;;;;;;;;1693646;84;21068;-67
2022/08/15 08:51:22;;;;;;;27.15;22.15;;;;;;;;;;1694655;85;21135;-66
2022/08/15 08:53:50;;;;;;;10.68;8.70;;;;;;;;;;1693088;84;21030;-66
2022/08/15 08:56:25;;;;;;;16.27;14.53;;;;;;;;;;1694405;84;21020;-66
2022/08/15 08:58:52;;;;;;;15.30;12.33;;;;;;;;;;1686846;84;21686;-66
2022/08/15 09:01:23;;;;;;;8.50;6.50;;;;;;;;;;1688360;83;21049;-68
2022/08/15 09:03:51;;;;;;;10.78;6.53;;;;;;;;;;1688830;84;21151;-68
2022/08/15 09:06:19;;;;;;;6.87;6.17;;;;;;;;;;1688430;84;21596;-68
2022/08/15 09:08:51;;;;;;;9.33;6.17;;;;;;;;;;1688772;84;21115;-69
2022/08/15 09:11:19;;;;;;;8.45;6.70;;;;;;;;;;1692032;84;21079;-70
2022/08/15 09:13:45;;;;;;;8.60;6.40;;;;;;;;;;1689618;84;21052;-67
2022/08/15 09:16:15;;;;;;;10.00;6.28;;;;;;;;;;1691600;84;21040;-67
2022/08/15 09:18:52;;;;;;;7.83;5.87;;;;;;;;;;1665450;85;21027;-67
2022/08/15 09:21:19;;;;;;;7.83;6.12;;;;;;;;;;1663894;85;21087;-69
2022/08/15 09:23:45;;;;;;;10.45;7.28;;;;;;;;;;1672550;85;21073;-68
2022/08/15 09:26:13;;;;;;;7.65;6.72;;;;;;;;;;1672606;84;21045;-68
2022/08/15 09:28:41;;;;;;;8.38;6.12;;;;;;;;;;1669152;86;21509;-69
2022/08/15 09:31:09;;;;;;;7.97;5.45;;;;;;;;;;1668828;86;21593;-68
2022/08/15 09:33:38;;;;;;;6.95;5.67;;;;;;;;;;1669883;86;21120;-69
2022/08/15 09:36:09;;;;;;;9.40;6.60;;;;;;;;;;1670036;86;21088;-69
2022/08/15 09:38:43;;;;;;;8.05;5.85;;;;;;;;;;1668781;86;21030;-69
2022/08/15 09:41:15;;;;;;;9.05;5.92;;;;;;;;;;1666915;86;21074;-68
2022/08/15 09:44:02;;;;;;;8.00;6.72;;;;;;;;;;1669549;86;21077;-68
2022/08/15 09:46:30;;;;;;;9.28;6.08;;;;;;;;;;1669701;86;21034;-69
2022/08/15 09:49:04;;;;;;;7.22;5.90;;;;;;;;;;1669302;86;21076;-68
2022/08/15 09:51:38;;;;;;;9.18;6.62;;;;;;;;;;1668578;86;21111;-70
2022/08/15 09:54:21;;;;;;;7.08;6.00;;;;;;;;;;1669411;86;21065;-68
2022/08/15 09:56:46;;;;;;;7.72;5.85;;;;;;;;;;1670650;86;21112;-69
2022/08/15 09:59:20;;;;;;;10.50;6.53;;;;;;;;;;1662185;84;21112;-68
2022/08/15 10:01:53;;;;;;;11.85;6.37;;;;;;;;;;1665612;86;21097;-68
2022/08/15 10:04:19;;;;;;;;;;;;;;;;;;1672759;86;21062;-69
2022/08/15 10:06:59;;;;;;;7.00;5.67;;;;;;;;;;1670560;86;20396;-69
2022/08/15 10:09:31;;;;;;;7.78;5.80;;;;;;;;;;1667462;86;21058;-70
2022/08/15 10:12:06;;;;;;;14.07;7.35;;;;;;;;;;1670006;86;21083;-69
2022/08/15 10:14:40;;;;;;;11.90;6.45;;;;;;;;;;1669396;86;21030;-68
2022/08/15 10:17:21;;;;;;;7.17;6.30;;;;;;;;;;1665813;86;21137;-68
2022/08/15 10:19:47;;;;;;;7.40;5.62;;;;;;;;;;1668092;86;21125;-69
2022/08/15 10:22:25;;;;;;;7.65;6.05;;;;;;;;;;1666668;84;21549;-67
2022/08/15 10:25:09;;;;;;;9.05;5.75;;;;;;;;;;1670416;86;21049;-69
2022/08/15 10:27:54;;;;;;;8.90;6.03;;;;;;;;;;1667623;85;21081;-69
2022/08/15 10:30:21;;;;;;;7.80;5.60;;;;;;;;;;1675931;84;21436;-67
2022/08/15 10:32:49;;;;;;;10.80;6.28;;;;;;;;;;1655130;85;21551;-68
2022/08/15 10:35:17;;;;;;;8.35;6.22;;;;;;;;;;1678583;85;22337;-68
2022/08/15 10:37:51;;;;;;;8.83;6.10;;;;;;;;;;1675181;85;22433;-67
2022/08/15 10:40:20;;;;;;;7.92;6.78;;;;;;;;;;1677702;84;21614;-68
2022/08/15 10:43:03;;;;;;;8.93;6.28;;;;;;;;;;1631259;86;21132;-68
2022/08/15 10:45:29;;;;;;;;;;;;;;;;;;1622982;88;21683;-68
2022/08/15 10:48:09;;;;;;;8.85;5.65;;;;;;;;;;1642344;87;20173;-69
2022/08/15 10:50:47;;;;;;;8.93;5.50;;;;;;;;;;1668482;85;21074;-69
2022/08/15 10:53:14;;;;;;;6.90;6.08;;;;;;;;;;1670134;85;22284;-68
2022/08/15 10:55:41;;;;;;;8.53;6.45;;;;;;;;;;1655489;85;21073;-68
2022/08/15 10:58:09;;;;;;;6.65;5.80;;;;;;;;;;1676298;85;21687;-68
2022/08/15 11:00:37;;;;;;;9.65;6.00;;;;;;;;;;1676015;84;21041;-69
2022/08/15 11:03:05;;;;;;;31.12;25.52;;;;;;;;;;1679715;84;21088;-69
2022/08/15 11:05:31;;;;;;;60.88;48.05;;;;;;;;;;1685882;85;21551;-69
2022/08/15 11:07:58;;;;;;;15.58;12.93;;;;;;;;;;1683038;85;21068;-68
2022/08/15 11:10:28;;;;;;;8.58;6.87;;;;;;;;;;1685959;84;21100;-68
2022/08/15 11:12:57;;;;;;;8.50;6.20;;;;;;;;;;1686148;84;21025;-67
2022/08/15 11:15:25;;;;;;;8.93;5.50;;;;;;;;;;1683002;84;21092;-68
2022/08/15 11:17:54;;;;;;;9.23;5.25;;;;;;;;;;1684870;84;22469;-69
2022/08/15 11:20:22;;;;;;;8.10;5.72;;;;;;;;;;1658245;85;21028;-70
2022/08/15 11:22:53;;;;;;;7.58;5.47;;;;;;;;;;1681700;84;21045;-68
2022/08/15 11:25:21;;;;;;;8.50;5.80;;;;;;;;;;1681976;84;21080;-67
2022/08/15 11:28:00;;;;;;;7.75;5.83;;;;;;;;;;1659027;86;21120;-67
2022/08/15 11:30:27;;;;;;;8.73;6.00;;;;;;;;;;1672774;85;21076;-68
2022/08/15 11:32:53;;;;;;;8.95;6.95;;;;;;;;;;1685803;84;21571;-66
2022/08/15 11:35:21;;;;;;;8.58;6.37;;;;;;;;;;1681052;84;20990;-66
2022/08/15 11:37:47;;;;;;;11.18;8.43;;;;;;;;;;1684842;84;21108;-65
2022/08/15 11:40:30;;;;;;;6.87;5.53;;;;;;;;;;1654577;86;21082;-67
2022/08/15 11:42:57;;;;;;;7.90;5.72;;;;;;;;;;1691864;84;21080;-67
2022/08/15 11:45:24;;;;;;;10.35;6.30;;;;;;;;;;1692728;84;21040;-67
2022/08/15 11:47:52;;;;;;;9.43;5.95;;;;;;;;;;1691502;84;21072;-67
2022/08/15 11:50:26;;;;;;;7.62;6.05;;;;;;;;;;1691488;84;21087;-68
2022/08/15 11:52:54;;;;;;;8.70;6.08;;;;;;;;;;1691204;84;21025;-68
2022/08/15 11:55:28;;;;;;;45.67;35.92;;;;;;;;;;1693710;85;21036;-68
2022/08/15 11:57:55;;;;;;;43.23;29.25;;;;;;;;;;1692233;84;20990;-68
2022/08/15 12:00:26;;;;;;;19.23;13.43;;;;;;;;;;1690529;85;21001;-69
2022/08/15 12:02:52;;;;;;;11.55;7.50;;;;;;;;;;1689056;83;21068;-69
2022/08/15 12:05:26;;;;;;;8.28;6.05;;;;;;;;;;1677163;84;21052;-72
2022/08/15 12:07:54;;;;;;;8.50;5.90;;;;;;;;;;1693881;85;21647;-69
2022/08/15 12:10:22;;;;;;;7.40;5.55;;;;;;;;;;1687918;85;21104;-70
2022/08/15 12:12:49;;;;;;;9.98;5.78;;;;;;;;;;1691928;85;21072;-70
2022/08/15 12:15:18;;;;;;;7.47;5.40;;;;;;;;;;1694123;85;21077;-70
2022/08/15 12:18:02;;;;;;;7.87;5.85;;;;;;;;;;1692734;83;21119;-70
2022/08/15 12:20:38;;;;;;;9.88;5.60;;;;;;;;;;1657464;86;21591;-71
2022/08/15 12:23:22;;;;;;;7.08;5.35;;;;;;;;;;1649929;86;21583;-73
2022/08/15 12:25:50;;;;;;;8.60;5.80;;;;;;;;;;1663483;85;21084;-68
2022/08/15 12:28:17;;;;;;;9.80;7.53;;;;;;;;;;1657097;86;21064;-67
2022/08/15 12:30:42;;;;;;;10.53;6.85;;;;;;;;;;1657606;86;22137;-67
2022/08/15 12:33:09;;;;;;;9.25;6.17;;;;;;;;;;1656026;86;21606;-68
2022/08/15 12:35:35;;;;;;;8.73;5.70;;;;;;;;;;1689479;85;21052;-68
2022/08/15 12:38:01;;;;;;;12.20;5.87;;;;;;;;;;1690672;84;21088;-67
2022/08/15 12:40:28;;;;;;;9.13;6.10;;;;;;;;;;1691797;84;21220;-68
2022/08/15 12:42:55;;;;;;;7.87;6.08;;;;;;;;;;1685272;84;21104;-68
2022/08/15 12:45:21;;;;;;;12.47;5.67;;;;;;;;;;1693269;85;21100;-69
2022/08/15 12:47:47;;;;;;;7.55;5.97;;;;;;;;;;1691691;84;21556;-69
2022/08/15 12:50:13;;;;;;;9.20;6.40;;;;;;;;;;1694627;85;21450;-69
2022/08/15 12:52:40;;;;;;;12.20;6.50;;;;;;;;;;1692649;84;21075;-71
2022/08/15 12:55:07;;;;;;;7.35;5.95;;;;;;;;;;1691701;84;21124;-71
2022/08/15 12:57:33;;;;;;;12.28;6.47;;;;;;;;;;1692908;84;21005;-69
2022/08/15 13:00:00;;;;;;;10.40;7.10;;;;;;;;;;1693393;85;21492;-69
2022/08/15 13:02:26;;;;;;;8.95;6.10;;;;;;;;;;1692870;84;21033;-70
2022/08/15 13:04:55;;;;;;;9.38;5.45;;;;;;;;;;1657153;86;21819;-71
2022/08/15 13:07:22;;;;;;;8.15;6.05;;;;;;;;;;1619214;87;21100;-68
2022/08/15 13:09:48;;;;;;;9.73;6.80;;;;;;;;;;1630062;86;21056;-68
2022/08/15 13:12:15;;;;;;;8.68;6.45;;;;;;;;;;1669615;85;21028;-67
2022/08/15 13:14:41;;;;;;;8.20;6.67;;;;;;;;;;1657464;86;21018;-67
2022/08/15 13:17:08;;;;;;;11.60;6.78;;;;;;;;;;1665048;86;21061;-67
2022/08/15 13:23:34;;;;;;;10.50;6.75;;;;;;;;;;1660584;86;21054;-67
2022/08/15 13:24:48;;;;;;;9.40;6.03;;;;;;;;;;1661553;86;21069;-67
2022/08/15 13:27:14;;;;;;;9.48;5.97;;;;;;;;;;1662978;85;22353;-66
2022/08/15 13:29:41;;;;;;;8.35;6.20;;;;;;;;;;1676922;85;21535;-66
2022/08/15 13:32:07;;;;;;;12.28;6.75;;;;;;;;;;1691168;84;21087;-67
2022/08/15 13:34:36;;;;;;;6.83;4.95;;;;;;;;;;1689847;84;21035;-68
2022/08/15 13:37:01;;;;;;;6.83;5.37;;;;;;;;;;1682121;84;21203;-66
2022/08/15 13:39:29;;;;;;;11.05;5.83;;;;;;;;;;1677246;84;21092;-67
2022/08/15 13:41:55;;;;;;;9.90;6.08;;;;;;;;;;1678573;84;21096;-67
2022/08/15 13:44:21;;;;;;;9.48;6.00;;;;;;;;;;1688068;83;21061;-67
2022/08/15 13:46:47;;;;;;;10.40;5.67;;;;;;;;;;1687918;83;21470;-69
2022/08/15 13:49:13;;;;;;;21.20;14.87;;;;;;;;;;1683765;83;21600;-68
2022/08/15 13:51:44;;;;;;;12.58;10.48;;;;;;;;;;1687742;83;21132;-68
2022/08/15 13:54:11;;;;;;;7.70;6.87;;;;;;;;;;1698911;83;22128;-69
2022/08/15 13:56:38;;;;;;;7.22;5.58;;;;;;;;;;1701432;83;21322;-70
2022/08/15 13:59:06;;;;;;;9.35;5.58;;;;;;;;;;1701976;83;21548;-69
2022/08/15 14:01:33;;;;;;;8.78;5.30;;;;;;;;;;1701964;84;21076;-69
2022/08/15 14:04:01;;;;;;;9.30;5.47;;;;;;;;;;1701933;83;21013;-70
2022/08/15 14:06:28;;;;;;;11.93;5.92;;;;;;;;;;1701920;83;21048;-70
2022/08/15 14:08:54;;;;;;;10.98;6.25;;;;;;;;;;1682196;83;21072;-69
2022/08/15 14:11:21;;;;;;;12.90;7.47;;;;;;;;;;1694865;83;22052;-68
2022/08/15 14:13:49;;;;;;;17.15;7.08;;;;;;;;;;1699426;83;21067;-67
2022/08/15 14:16:15;;;;;;;9.65;6.50;;;;;;;;;;1701936;83;21555;-67
2022/08/15 14:18:41;;;;;;;6.55;5.08;;;;;;;;;;1723420;83;21026;-70
2022/08/15 14:21:09;;;;;;;10.48;5.25;;;;;;;;;;1714442;83;21107;-69
2022/08/15 14:23:35;;;;;;;7.97;6.17;;;;;;;;;;1684639;85;21033;-69
2022/08/15 14:26:02;;;;;;;8.38;5.35;;;;;;;;;;1702161;84;20989;-70
2022/08/15 14:28:28;;;;;;;8.03;5.22;;;;;;;;;;1697362;84;21017;-70
2022/08/15 14:30:54;;;;;;;6.90;5.58;;;;;;;;;;1696986;83;20992;-68
2022/08/15 14:33:20;;;;;;;8.53;5.67;;;;;;;;;;1704912;83;21041;-69
2022/08/15 14:35:46;;;;;;;6.62;5.67;;;;;;;;;;1693572;83;21468;-69
2022/08/15 14:38:12;;;;;;;7.70;5.58;;;;;;;;;;1693230;83;22207;-69
2022/08/15 14:40:39;;;;;;;6.95;5.53;;;;;;;;;;1694833;83;21080;-73
2022/08/15 14:57:19;;;;;;;17.87;13.30;;;;;;;;;;1727959;82;23716;-66
2022/08/15 14:59:44;;;;;;;53.73;46.30;;;;;;;;;;1697073;84;21016;-64
2022/08/15 15:02:12;;;;;;;10.75;9.63;;;;;;;;;;1698086;84;21068;-65
2022/08/15 15:04:38;;;;;;;7.20;4.80;;;;;;;;;;1695888;83;21045;-65
2022/08/15 15:07:04;;;;;;;8.88;5.80;;;;;;;;;;1696898;83;20981;-65
2022/08/15 15:09:32;;;;;;;6.97;4.87;;;;;;;;;;1667183;86;21020;-65
2022/08/15 15:11:58;;;;;;;11.57;5.15;;;;;;;;;;1648499;86;21089;-66
2022/08/15 15:14:24;;;;;;;7.30;4.85;;;;;;;;;;1650243;86;21563;-66
2022/08/15 15:16:50;;;;;;;7.20;4.40;;;;;;;;;;1663708;86;21028;-66
2022/08/15 15:19:18;;;;;;;11.70;4.87;;;;;;;;;;1648447;87;20998;-68
2022/08/15 15:21:46;;;;;;;9.38;6.95;;;;;;;;;;1648627;87;21061;-68